sensor_id;sensor_type;location;lat;lon;timestamp;temperature;humidity
36800;DHT22;22752;51.960;5.886;2023-06-26T00:01:59;22.60;99.90
36800;DHT22;22752;51.960;5.886;2023-06-26T00:04:25;22.50;99.90
36800;DHT22;22752;51.960;5.886;2023-06-26T00:06:50;22.50;99.90
36800;DHT22;22752;51.960;5.886;2023-06-26T00:09:16;22.40;99.90
36800;DHT22;22752;51.960;5.886;2023-06-26T00:11:41;22.40;99.90
36800;DHT22;22752;51.960;5.886;2023-06-26T00:14:07;22.30;99.90
36800;DHT22;22752;51.960;5.886;2023-06-26T00:16:33;22.30;99.90
36800;DHT22;22752;51.960;5.886;2023-06-26T00:18:59;22.20;99.90
36800;DHT22;22752;51.960;5.886;2023-06-26T00:21:25;22.20;99.90
36800;DHT22;22752;51.960;5.886;2023-06-26T00:23:51;22.10;99.90
36800;DHT22;22752;51.960;5.886;2023-06-26T00:26:17;22.10;99.90
36800;DHT22;22752;51.960;5.886;2023-06-26T00:28:42;22.10;99.90
36800;DHT22;22752;51.960;5.886;2023-06-26T00:31:08;22.00;99.90
36800;DHT22;22752;51.960;5.886;2023-06-26T00:33:34;21.90;99.90
36800;DHT22;22752;51.960;5.886;2023-06-26T00:35:59;21.90;99.90
36800;DHT22;22752;51.960;5.886;2023-06-26T00:38:25;21.80;99.90
36800;DHT22;22752;51.960;5.886;2023-06-26T00:40:51;21.80;99.90
36800;DHT22;22752;51.960;5.886;2023-06-26T00:43:16;21.80;99.90
36800;DHT22;22752;51.960;5.886;2023-06-26T00:45:42;21.70;99.90
36800;DHT22;22752;51.960;5.886;2023-06-26T00:48:10;21.70;99.90
36800;DHT22;22752;51.960;5.886;2023-06-26T00:50:37;21.70;99.90
36800;DHT22;22752;51.960;5.886;2023-06-26T00:53:03;21.70;99.90
36800;DHT22;22752;51.960;5.886;2023-06-26T00:55:29;21.60;99.90
36800;DHT22;22752;51.960;5.886;2023-06-26T00:57:55;21.70;99.90
36800;DHT22;22752;51.960;5.886;2023-06-26T01:00:21;21.70;99.90
36800;DHT22;22752;51.960;5.886;2023-06-26T01:02:47;21.60;99.90
36800;DHT22;22752;51.960;5.886;2023-06-26T01:05:13;21.60;99.90
36800;DHT22;22752;51.960;5.886;2023-06-26T01:07:49;21.60;99.90
36800;DHT22;22752;51.960;5.886;2023-06-26T01:10:16;21.50;99.90
36800;DHT22;22752;51.960;5.886;2023-06-26T01:12:42;21.50;99.90
36800;DHT22;22752;51.960;5.886;2023-06-26T01:15:09;21.50;99.90
36800;DHT22;22752;51.960;5.886;2023-06-26T01:17:36;21.40;99.90
36800;DHT22;22752;51.960;5.886;2023-06-26T01:20:05;21.40;99.90
36800;DHT22;22752;51.960;5.886;2023-06-26T01:22:48;21.40;99.90
36800;DHT22;22752;51.960;5.886;2023-06-26T01:25:40;21.40;99.90
36800;DHT22;22752;51.960;5.886;2023-06-26T01:28:07;21.40;99.90
36800;DHT22;22752;51.960;5.886;2023-06-26T01:30:37;21.40;99.90
36800;DHT22;22752;51.960;5.886;2023-06-26T01:33:03;21.30;99.90
36800;DHT22;22752;51.960;5.886;2023-06-26T01:35:29;21.40;99.90
36800;DHT22;22752;51.960;5.886;2023-06-26T01:38:20;21.40;99.90
36800;DHT22;22752;51.960;5.886;2023-06-26T01:40:48;21.40;99.90
36800;DHT22;22752;51.960;5.886;2023-06-26T01:43:31;21.40;99.90
36800;DHT22;22752;51.960;5.886;2023-06-26T01:46:04;21.50;99.90
36800;DHT22;22752;51.960;5.886;2023-06-26T01:48:39;21.50;99.90
36800;DHT22;22752;51.960;5.886;2023-06-26T01:51:06;21.50;99.90
36800;DHT22;22752;51.960;5.886;2023-06-26T01:53:38;21.50;99.90
36800;DHT22;22752;51.960;5.886;2023-06-26T01:56:13;21.60;99.90
36800;DHT22;22752;51.960;5.886;2023-06-26T01:58:43;21.80;99.90
36800;DHT22;22752;51.960;5.886;2023-06-26T02:01:10;21.90;99.90
36800;DHT22;22752;51.960;5.886;2023-06-26T02:03:35;22.00;99.90
36800;DHT22;22752;51.960;5.886;2023-06-26T02:06:01;22.10;99.90
36800;DHT22;22752;51.960;5.886;2023-06-26T02:08:27;22.20;99.90
36800;DHT22;22752;51.960;5.886;2023-06-26T02:10:52;22.20;99.90
36800;DHT22;22752;51.960;5.886;2023-06-26T02:13:18;22.30;99.90
36800;DHT22;22752;51.960;5.886;2023-06-26T02:15:44;22.40;99.90
36800;DHT22;22752;51.960;5.886;2023-06-26T02:18:09;22.40;99.90
36800;DHT22;22752;51.960;5.886;2023-06-26T02:20:35;22.30;99.90
36800;DHT22;22752;51.960;5.886;2023-06-26T02:23:01;22.40;99.90
36800;DHT22;22752;51.960;5.886;2023-06-26T02:25:26;22.40;99.90
36800;DHT22;22752;51.960;5.886;2023-06-26T02:27:52;22.40;99.90
36800;DHT22;22752;51.960;5.886;2023-06-26T02:30:18;22.40;99.90
36800;DHT22;22752;51.960;5.886;2023-06-26T02:32:44;22.30;99.90
36800;DHT22;22752;51.960;5.886;2023-06-26T02:35:10;22.30;99.90
36800;DHT22;22752;51.960;5.886;2023-06-26T02:37:36;22.30;99.90
36800;DHT22;22752;51.960;5.886;2023-06-26T02:40:02;22.20;99.90
36800;DHT22;22752;51.960;5.886;2023-06-26T02:42:29;22.20;99.90
36800;DHT22;22752;51.960;5.886;2023-06-26T02:44:55;22.10;99.90
36800;DHT22;22752;51.960;5.886;2023-06-26T02:47:20;22.10;99.90
36800;DHT22;22752;51.960;5.886;2023-06-26T02:49:46;22.00;99.90
36800;DHT22;22752;51.960;5.886;2023-06-26T02:52:12;22.00;99.90
36800;DHT22;22752;51.960;5.886;2023-06-26T02:54:37;21.90;99.90
36800;DHT22;22752;51.960;5.886;2023-06-26T02:57:03;21.90;99.90
36800;DHT22;22752;51.960;5.886;2023-06-26T02:59:28;21.80;99.90
36800;DHT22;22752;51.960;5.886;2023-06-26T03:01:54;21.80;99.90
36800;DHT22;22752;51.960;5.886;2023-06-26T03:04:20;21.70;99.90
36800;DHT22;22752;51.960;5.886;2023-06-26T03:06:47;21.70;99.90
36800;DHT22;22752;51.960;5.886;2023-06-26T03:09:12;21.70;99.90
36800;DHT22;22752;51.960;5.886;2023-06-26T03:11:38;21.70;99.90
36800;DHT22;22752;51.960;5.886;2023-06-26T03:14:04;21.60;99.90
36800;DHT22;22752;51.960;5.886;2023-06-26T03:16:29;21.60;99.90
36800;DHT22;22752;51.960;5.886;2023-06-26T03:18:55;21.50;99.90
36800;DHT22;22752;51.960;5.886;2023-06-26T03:21:21;21.50;99.90
36800;DHT22;22752;51.960;5.886;2023-06-26T03:23:46;21.50;99.90
36800;DHT22;22752;51.960;5.886;2023-06-26T03:26:12;21.50;99.90
36800;DHT22;22752;51.960;5.886;2023-06-26T03:28:40;21.50;99.90
36800;DHT22;22752;51.960;5.886;2023-06-26T03:31:06;21.50;99.90
36800;DHT22;22752;51.960;5.886;2023-06-26T03:33:31;21.50;99.90
36800;DHT22;22752;51.960;5.886;2023-06-26T03:35:57;21.50;99.90
36800;DHT22;22752;51.960;5.886;2023-06-26T03:38:24;21.50;99.90
36800;DHT22;22752;51.960;5.886;2023-06-26T03:40:51;21.50;99.90
36800;DHT22;22752;51.960;5.886;2023-06-26T03:43:17;21.40;99.90
36800;DHT22;22752;51.960;5.886;2023-06-26T03:45:43;21.40;99.90
36800;DHT22;22752;51.960;5.886;2023-06-26T03:48:08;21.40;99.90
36800;DHT22;22752;51.960;5.886;2023-06-26T03:50:34;21.40;99.90
36800;DHT22;22752;51.960;5.886;2023-06-26T03:53:00;21.40;99.90
36800;DHT22;22752;51.960;5.886;2023-06-26T03:55:25;21.30;99.90
36800;DHT22;22752;51.960;5.886;2023-06-26T03:57:51;21.30;99.90
36800;DHT22;22752;51.960;5.886;2023-06-26T04:00:17;21.30;99.90
36800;DHT22;22752;51.960;5.886;2023-06-26T04:02:43;21.40;99.90
36800;DHT22;22752;51.960;5.886;2023-06-26T04:05:08;21.40;99.90
36800;DHT22;22752;51.960;5.886;2023-06-26T04:07:34;21.40;99.90
36800;DHT22;22752;51.960;5.886;2023-06-26T04:10:01;21.30;99.90
36800;DHT22;22752;51.960;5.886;2023-06-26T04:12:27;21.30;99.90
36800;DHT22;22752;51.960;5.886;2023-06-26T04:14:53;21.30;99.90
36800;DHT22;22752;51.960;5.886;2023-06-26T04:17:18;21.30;99.90
36800;DHT22;22752;51.960;5.886;2023-06-26T04:19:44;21.30;99.90
36800;DHT22;22752;51.960;5.886;2023-06-26T04:22:09;21.30;99.90
36800;DHT22;22752;51.960;5.886;2023-06-26T04:24:35;21.40;99.90
36800;DHT22;22752;51.960;5.886;2023-06-26T04:27:01;21.50;99.90
36800;DHT22;22752;51.960;5.886;2023-06-26T04:29:27;21.60;99.90
36800;DHT22;22752;51.960;5.886;2023-06-26T04:31:53;21.60;99.90
36800;DHT22;22752;51.960;5.886;2023-06-26T04:34:24;21.50;99.90
36800;DHT22;22752;51.960;5.886;2023-06-26T04:36:49;21.50;99.90
36800;DHT22;22752;51.960;5.886;2023-06-26T04:39:16;21.50;99.90
36800;DHT22;22752;51.960;5.886;2023-06-26T04:41:42;21.50;99.90
36800;DHT22;22752;51.960;5.886;2023-06-26T04:44:07;21.40;99.90
36800;DHT22;22752;51.960;5.886;2023-06-26T04:46:33;21.50;99.90
36800;DHT22;22752;51.960;5.886;2023-06-26T04:48:58;21.50;99.90
36800;DHT22;22752;51.960;5.886;2023-06-26T04:51:27;21.60;99.90
36800;DHT22;22752;51.960;5.886;2023-06-26T04:53:54;21.90;99.90
36800;DHT22;22752;51.960;5.886;2023-06-26T04:56:20;22.20;99.90
36800;DHT22;22752;51.960;5.886;2023-06-26T04:58:45;22.50;99.90
36800;DHT22;22752;51.960;5.886;2023-06-26T05:01:11;22.50;99.90
36800;DHT22;22752;51.960;5.886;2023-06-26T05:03:40;22.50;99.90
36800;DHT22;22752;51.960;5.886;2023-06-26T05:06:06;22.70;99.90
36800;DHT22;22752;51.960;5.886;2023-06-26T05:08:32;23.20;99.90
36800;DHT22;22752;51.960;5.886;2023-06-26T05:10:57;23.80;99.90
36800;DHT22;22752;51.960;5.886;2023-06-26T05:13:26;24.30;99.90
36800;DHT22;22752;51.960;5.886;2023-06-26T05:15:52;24.90;99.90
36800;DHT22;22752;51.960;5.886;2023-06-26T05:18:18;25.40;99.90
36800;DHT22;22752;51.960;5.886;2023-06-26T05:20:44;25.80;99.90
36800;DHT22;22752;51.960;5.886;2023-06-26T05:23:13;25.90;99.90
36800;DHT22;22752;51.960;5.886;2023-06-26T05:25:40;26.10;99.90
36800;DHT22;22752;51.960;5.886;2023-06-26T05:28:06;26.40;99.90
36800;DHT22;22752;51.960;5.886;2023-06-26T05:30:34;26.70;99.90
36800;DHT22;22752;51.960;5.886;2023-06-26T05:33:01;26.80;99.90
36800;DHT22;22752;51.960;5.886;2023-06-26T05:35:30;27.10;99.60
36800;DHT22;22752;51.960;5.886;2023-06-26T05:37:57;27.30;99.40
36800;DHT22;22752;51.960;5.886;2023-06-26T05:40:23;27.40;98.60
36800;DHT22;22752;51.960;5.886;2023-06-26T05:42:49;26.90;99.00
36800;DHT22;22752;51.960;5.886;2023-06-26T05:45:15;26.10;99.30
36800;DHT22;22752;51.960;5.886;2023-06-26T05:47:41;25.50;99.90
36800;DHT22;22752;51.960;5.886;2023-06-26T05:50:08;25.30;99.90
36800;DHT22;22752;51.960;5.886;2023-06-26T05:52:34;25.70;99.90
36800;DHT22;22752;51.960;5.886;2023-06-26T05:55:01;26.30;99.90
36800;DHT22;22752;51.960;5.886;2023-06-26T05:57:28;26.80;99.40
36800;DHT22;22752;51.960;5.886;2023-06-26T05:59:54;27.30;99.00
36800;DHT22;22752;51.960;5.886;2023-06-26T06:02:20;27.90;97.70
36800;DHT22;22752;51.960;5.886;2023-06-26T06:04:46;28.10;97.20
36800;DHT22;22752;51.960;5.886;2023-06-26T06:07:12;28.40;96.80
36800;DHT22;22752;51.960;5.886;2023-06-26T06:09:38;28.80;95.90
36800;DHT22;22752;51.960;5.886;2023-06-26T06:12:07;29.00;95.10
36800;DHT22;22752;51.960;5.886;2023-06-26T06:14:33;29.00;94.20
36800;DHT22;22752;51.960;5.886;2023-06-26T06:16:59;29.00;94.40
36800;DHT22;22752;51.960;5.886;2023-06-26T06:19:25;29.20;94.20
36800;DHT22;22752;51.960;5.886;2023-06-26T06:21:51;29.50;93.70
36800;DHT22;22752;51.960;5.886;2023-06-26T06:24:16;29.60;93.20
36800;DHT22;22752;51.960;5.886;2023-06-26T06:26:42;29.80;92.90
36800;DHT22;22752;51.960;5.886;2023-06-26T06:29:08;30.00;92.50
36800;DHT22;22752;51.960;5.886;2023-06-26T06:31:34;30.30;92.00
36800;DHT22;22752;51.960;5.886;2023-06-26T06:33:59;30.40;91.50
36800;DHT22;22752;51.960;5.886;2023-06-26T06:36:25;30.50;91.20
36800;DHT22;22752;51.960;5.886;2023-06-26T06:38:51;30.70;90.50
36800;DHT22;22752;51.960;5.886;2023-06-26T06:41:16;30.80;90.20
36800;DHT22;22752;51.960;5.886;2023-06-26T06:43:42;30.80;89.70
36800;DHT22;22752;51.960;5.886;2023-06-26T06:46:08;30.90;88.90
36800;DHT22;22752;51.960;5.886;2023-06-26T06:48:34;31.10;88.60
36800;DHT22;22752;51.960;5.886;2023-06-26T06:51:00;31.40;88.30
36800;DHT22;22752;51.960;5.886;2023-06-26T06:53:26;31.50;87.60
36800;DHT22;22752;51.960;5.886;2023-06-26T06:55:52;31.50;88.50
36800;DHT22;22752;51.960;5.886;2023-06-26T06:58:18;31.40;86.00
36800;DHT22;22752;51.960;5.886;2023-06-26T07:00:46;31.10;86.60
36800;DHT22;22752;51.960;5.886;2023-06-26T07:03:12;30.80;86.20
36800;DHT22;22752;51.960;5.886;2023-06-26T07:05:38;30.80;86.70
36800;DHT22;22752;51.960;5.886;2023-06-26T07:08:03;30.90;86.30
36800;DHT22;22752;51.960;5.886;2023-06-26T07:10:29;31.00;87.30
36800;DHT22;22752;51.960;5.886;2023-06-26T07:12:55;31.30;87.40
36800;DHT22;22752;51.960;5.886;2023-06-26T07:15:21;31.50;86.90
36800;DHT22;22752;51.960;5.886;2023-06-26T07:17:46;31.80;85.30
36800;DHT22;22752;51.960;5.886;2023-06-26T07:20:12;32.00;85.10
36800;DHT22;22752;51.960;5.886;2023-06-26T07:22:41;31.80;84.30
36800;DHT22;22752;51.960;5.886;2023-06-26T07:25:08;31.60;83.60
36800;DHT22;22752;51.960;5.886;2023-06-26T07:27:36;30.80;84.10
36800;DHT22;22752;51.960;5.886;2023-06-26T07:30:02;30.00;86.10
36800;DHT22;22752;51.960;5.886;2023-06-26T07:32:27;29.70;86.90
36800;DHT22;22752;51.960;5.886;2023-06-26T07:34:53;29.70;87.80
36800;DHT22;22752;51.960;5.886;2023-06-26T07:37:19;30.10;87.40
36800;DHT22;22752;51.960;5.886;2023-06-26T07:39:44;30.30;87.00
36800;DHT22;22752;51.960;5.886;2023-06-26T07:42:10;29.80;86.90
36800;DHT22;22752;51.960;5.886;2023-06-26T07:44:35;29.30;87.60
36800;DHT22;22752;51.960;5.886;2023-06-26T07:47:01;29.00;88.80
36800;DHT22;22752;51.960;5.886;2023-06-26T07:49:27;29.10;88.60
36800;DHT22;22752;51.960;5.886;2023-06-26T07:51:53;29.00;88.50
36800;DHT22;22752;51.960;5.886;2023-06-26T07:54:19;28.90;88.30
36800;DHT22;22752;51.960;5.886;2023-06-26T07:56:58;28.60;89.20
36800;DHT22;22752;51.960;5.886;2023-06-26T07:59:26;28.70;90.10
36800;DHT22;22752;51.960;5.886;2023-06-26T08:01:54;28.70;90.10
36800;DHT22;22752;51.960;5.886;2023-06-26T08:04:22;28.40;90.30
36800;DHT22;22752;51.960;5.886;2023-06-26T08:06:56;28.30;90.90
36800;DHT22;22752;51.960;5.886;2023-06-26T08:09:24;28.90;90.70
36800;DHT22;22752;51.960;5.886;2023-06-26T08:11:50;29.40;90.10
36800;DHT22;22752;51.960;5.886;2023-06-26T08:14:16;29.60;88.40
36800;DHT22;22752;51.960;5.886;2023-06-26T08:16:42;29.40;88.80
36800;DHT22;22752;51.960;5.886;2023-06-26T08:19:09;29.60;89.50
36800;DHT22;22752;51.960;5.886;2023-06-26T08:21:35;30.00;89.30
36800;DHT22;22752;51.960;5.886;2023-06-26T08:24:01;30.40;88.90
36800;DHT22;22752;51.960;5.886;2023-06-26T08:26:27;30.30;87.40
36800;DHT22;22752;51.960;5.886;2023-06-26T08:28:53;30.20;86.00
36800;DHT22;22752;51.960;5.886;2023-06-26T08:31:19;30.40;86.40
36800;DHT22;22752;51.960;5.886;2023-06-26T08:33:46;30.20;86.00
36800;DHT22;22752;51.960;5.886;2023-06-26T08:36:11;29.60;86.10
36800;DHT22;22752;51.960;5.886;2023-06-26T08:38:37;28.80;87.10
36800;DHT22;22752;51.960;5.886;2023-06-26T08:41:06;28.30;89.80
36800;DHT22;22752;51.960;5.886;2023-06-26T08:43:31;28.70;90.80
36800;DHT22;22752;51.960;5.886;2023-06-26T08:45:58;29.40;89.00
36800;DHT22;22752;51.960;5.886;2023-06-26T08:48:24;29.70;87.40
36800;DHT22;22752;51.960;5.886;2023-06-26T08:50:52;29.80;87.30
36800;DHT22;22752;51.960;5.886;2023-06-26T08:53:29;30.10;86.00
36800;DHT22;22752;51.960;5.886;2023-06-26T08:55:59;30.10;85.00
36800;DHT22;22752;51.960;5.886;2023-06-26T08:58:25;30.10;84.70
36800;DHT22;22752;51.960;5.886;2023-06-26T09:00:51;29.80;83.60
36800;DHT22;22752;51.960;5.886;2023-06-26T09:03:17;29.50;84.70
36800;DHT22;22752;51.960;5.886;2023-06-26T09:05:43;29.70;88.10
36800;DHT22;22752;51.960;5.886;2023-06-26T09:08:08;30.00;86.70
36800;DHT22;22752;51.960;5.886;2023-06-26T09:10:34;30.20;84.50
36800;DHT22;22752;51.960;5.886;2023-06-26T09:13:00;29.90;83.90
36800;DHT22;22752;51.960;5.886;2023-06-26T09:15:43;29.50;84.80
36800;DHT22;22752;51.960;5.886;2023-06-26T09:18:09;29.20;85.60
36800;DHT22;22752;51.960;5.886;2023-06-26T09:20:34;28.80;84.30
36800;DHT22;22752;51.960;5.886;2023-06-26T09:23:01;28.40;84.00
36800;DHT22;22752;51.960;5.886;2023-06-26T09:25:28;28.20;84.10
36800;DHT22;22752;51.960;5.886;2023-06-26T09:27:54;28.10;84.60
36800;DHT22;22752;51.960;5.886;2023-06-26T09:30:20;28.10;84.70
36800;DHT22;22752;51.960;5.886;2023-06-26T09:32:46;28.00;84.00
36800;DHT22;22752;51.960;5.886;2023-06-26T09:35:12;27.80;82.80
36800;DHT22;22752;51.960;5.886;2023-06-26T09:37:38;27.40;84.60
36800;DHT22;22752;51.960;5.886;2023-06-26T09:40:04;27.20;87.00
36800;DHT22;22752;51.960;5.886;2023-06-26T09:42:30;27.20;85.10
36800;DHT22;22752;51.960;5.886;2023-06-26T09:44:57;27.20;84.10
36800;DHT22;22752;51.960;5.886;2023-06-26T09:47:23;27.20;84.40
36800;DHT22;22752;51.960;5.886;2023-06-26T09:49:49;27.10;84.70
36800;DHT22;22752;51.960;5.886;2023-06-26T09:52:18;27.20;85.60
36800;DHT22;22752;51.960;5.886;2023-06-26T09:54:44;27.30;86.20
36800;DHT22;22752;51.960;5.886;2023-06-26T09:57:15;27.50;86.50
36800;DHT22;22752;51.960;5.886;2023-06-26T09:59:42;27.50;86.90
36800;DHT22;22752;51.960;5.886;2023-06-26T10:02:08;27.50;86.50
36800;DHT22;22752;51.960;5.886;2023-06-26T10:04:35;27.70;87.10
36800;DHT22;22752;51.960;5.886;2023-06-26T10:07:08;27.70;84.10
36800;DHT22;22752;51.960;5.886;2023-06-26T10:09:40;27.50;84.60
36800;DHT22;22752;51.960;5.886;2023-06-26T10:12:27;27.00;85.00
36800;DHT22;22752;51.960;5.886;2023-06-26T10:14:53;26.80;86.10
36800;DHT22;22752;51.960;5.886;2023-06-26T10:17:21;26.80;86.40
36800;DHT22;22752;51.960;5.886;2023-06-26T10:19:48;26.80;85.40
36800;DHT22;22752;51.960;5.886;2023-06-26T10:22:18;26.70;85.00
36800;DHT22;22752;51.960;5.886;2023-06-26T10:24:47;26.50;84.10
36800;DHT22;22752;51.960;5.886;2023-06-26T10:27:17;26.40;85.30
36800;DHT22;22752;51.960;5.886;2023-06-26T10:29:45;26.40;86.00
36800;DHT22;22752;51.960;5.886;2023-06-26T10:32:13;26.50;84.70
36800;DHT22;22752;51.960;5.886;2023-06-26T10:34:39;26.60;84.80
36800;DHT22;22752;51.960;5.886;2023-06-26T10:37:05;26.60;84.20
36800;DHT22;22752;51.960;5.886;2023-06-26T10:39:49;26.60;84.50
36800;DHT22;22752;51.960;5.886;2023-06-26T10:42:16;26.50;84.10
36800;DHT22;22752;51.960;5.886;2023-06-26T10:44:46;26.30;84.60
36800;DHT22;22752;51.960;5.886;2023-06-26T10:49:55;26.40;84.30
36800;DHT22;22752;51.960;5.886;2023-06-26T10:52:20;26.30;84.10
36800;DHT22;22752;51.960;5.886;2023-06-26T10:54:46;26.40;83.60
36800;DHT22;22752;51.960;5.886;2023-06-26T10:57:23;26.50;81.40
36800;DHT22;22752;51.960;5.886;2023-06-26T11:00:11;26.60;80.30
36800;DHT22;22752;51.960;5.886;2023-06-26T11:02:50;26.60;80.50
36800;DHT22;22752;51.960;5.886;2023-06-26T11:05:26;26.70;79.70
36800;DHT22;22752;51.960;5.886;2023-06-26T11:08:10;26.70;80.30
36800;DHT22;22752;51.960;5.886;2023-06-26T11:10:54;26.70;77.60
36800;DHT22;22752;51.960;5.886;2023-06-26T11:13:25;26.50;78.60
36800;DHT22;22752;51.960;5.886;2023-06-26T11:15:52;26.40;78.60
36800;DHT22;22752;51.960;5.886;2023-06-26T11:18:17;26.60;79.30
36800;DHT22;22752;51.960;5.886;2023-06-26T11:20:44;26.50;79.50
36800;DHT22;22752;51.960;5.886;2023-06-26T11:23:09;26.40;81.00
36800;DHT22;22752;51.960;5.886;2023-06-26T11:25:37;26.40;82.10
36800;DHT22;22752;51.960;5.886;2023-06-26T11:28:09;26.50;79.70
36800;DHT22;22752;51.960;5.886;2023-06-26T11:30:34;26.60;78.90
36800;DHT22;22752;51.960;5.886;2023-06-26T11:33:08;26.70;78.30
36800;DHT22;22752;51.960;5.886;2023-06-26T11:35:34;26.70;79.30
36800;DHT22;22752;51.960;5.886;2023-06-26T11:38:01;26.60;78.50
36800;DHT22;22752;51.960;5.886;2023-06-26T11:40:31;26.50;79.10
36800;DHT22;22752;51.960;5.886;2023-06-26T11:43:01;26.50;79.30
36800;DHT22;22752;51.960;5.886;2023-06-26T11:45:31;26.50;79.20
36800;DHT22;22752;51.960;5.886;2023-06-26T11:47:58;26.50;80.30
36800;DHT22;22752;51.960;5.886;2023-06-26T11:50:24;26.60;79.60
36800;DHT22;22752;51.960;5.886;2023-06-26T11:52:57;26.60;78.50
36800;DHT22;22752;51.960;5.886;2023-06-26T11:55:24;26.50;79.60
36800;DHT22;22752;51.960;5.886;2023-06-26T11:57:52;26.50;79.70
36800;DHT22;22752;51.960;5.886;2023-06-26T12:00:18;26.70;79.90
36800;DHT22;22752;51.960;5.886;2023-06-26T12:02:45;27.00;79.70
36800;DHT22;22752;51.960;5.886;2023-06-26T12:05:13;27.20;79.60
36800;DHT22;22752;51.960;5.886;2023-06-26T12:07:41;27.10;79.70
36800;DHT22;22752;51.960;5.886;2023-06-26T12:10:09;27.10;80.40
36800;DHT22;22752;51.960;5.886;2023-06-26T12:12:35;27.20;80.50
36800;DHT22;22752;51.960;5.886;2023-06-26T12:15:01;27.30;78.70
36800;DHT22;22752;51.960;5.886;2023-06-26T12:17:27;27.10;75.50
36800;DHT22;22752;51.960;5.886;2023-06-26T12:19:53;27.00;75.90
36800;DHT22;22752;51.960;5.886;2023-06-26T12:22:19;27.10;77.50
36800;DHT22;22752;51.960;5.886;2023-06-26T12:24:46;27.20;78.00
36800;DHT22;22752;51.960;5.886;2023-06-26T12:27:13;27.40;77.90
36800;DHT22;22752;51.960;5.886;2023-06-26T12:29:45;27.30;78.00
36800;DHT22;22752;51.960;5.886;2023-06-26T12:32:12;27.40;78.10
36800;DHT22;22752;51.960;5.886;2023-06-26T12:34:39;27.50;76.90
36800;DHT22;22752;51.960;5.886;2023-06-26T12:37:08;27.60;77.40
36800;DHT22;22752;51.960;5.886;2023-06-26T12:39:47;27.60;77.00
36800;DHT22;22752;51.960;5.886;2023-06-26T12:42:18;27.50;77.10
36800;DHT22;22752;51.960;5.886;2023-06-26T12:44:44;27.30;77.10
36800;DHT22;22752;51.960;5.886;2023-06-26T12:47:10;27.30;77.20
36800;DHT22;22752;51.960;5.886;2023-06-26T12:49:40;27.20;77.50
36800;DHT22;22752;51.960;5.886;2023-06-26T12:52:08;27.20;76.20
36800;DHT22;22752;51.960;5.886;2023-06-26T12:54:35;27.20;75.80
36800;DHT22;22752;51.960;5.886;2023-06-26T12:57:01;27.10;76.10
36800;DHT22;22752;51.960;5.886;2023-06-26T12:59:27;27.10;76.30
36800;DHT22;22752;51.960;5.886;2023-06-26T13:01:52;27.10;75.70
36800;DHT22;22752;51.960;5.886;2023-06-26T13:04:18;27.00;76.10
36800;DHT22;22752;51.960;5.886;2023-06-26T13:06:44;27.00;76.10
36800;DHT22;22752;51.960;5.886;2023-06-26T13:09:10;27.00;76.20
36800;DHT22;22752;51.960;5.886;2023-06-26T13:11:37;27.10;75.80
36800;DHT22;22752;51.960;5.886;2023-06-26T13:14:02;27.00;75.60
36800;DHT22;22752;51.960;5.886;2023-06-26T13:16:29;27.10;76.40
36800;DHT22;22752;51.960;5.886;2023-06-26T13:18:54;27.10;75.00
36800;DHT22;22752;51.960;5.886;2023-06-26T13:21:21;26.90;75.60
36800;DHT22;22752;51.960;5.886;2023-06-26T13:23:47;26.70;76.60
36800;DHT22;22752;51.960;5.886;2023-06-26T13:26:12;26.60;76.60
36800;DHT22;22752;51.960;5.886;2023-06-26T13:28:38;26.70;75.80
36800;DHT22;22752;51.960;5.886;2023-06-26T13:31:04;26.50;75.40
36800;DHT22;22752;51.960;5.886;2023-06-26T13:33:30;26.30;77.80
36800;DHT22;22752;51.960;5.886;2023-06-26T13:35:57;26.10;77.10
36800;DHT22;22752;51.960;5.886;2023-06-26T13:38:24;26.10;77.40
36800;DHT22;22752;51.960;5.886;2023-06-26T13:40:56;26.10;76.60
36800;DHT22;22752;51.960;5.886;2023-06-26T13:43:26;26.30;76.60
36800;DHT22;22752;51.960;5.886;2023-06-26T13:45:52;26.40;76.00
36800;DHT22;22752;51.960;5.886;2023-06-26T13:48:18;26.60;75.40
36800;DHT22;22752;51.960;5.886;2023-06-26T13:50:45;26.70;75.70
36800;DHT22;22752;51.960;5.886;2023-06-26T13:53:11;26.90;75.00
36800;DHT22;22752;51.960;5.886;2023-06-26T13:55:36;26.70;75.30
36800;DHT22;22752;51.960;5.886;2023-06-26T13:58:04;26.80;75.50
36800;DHT22;22752;51.960;5.886;2023-06-26T14:00:31;26.80;74.90
36800;DHT22;22752;51.960;5.886;2023-06-26T14:03:04;26.60;75.10
36800;DHT22;22752;51.960;5.886;2023-06-26T14:05:34;26.30;75.70
36800;DHT22;22752;51.960;5.886;2023-06-26T14:08:03;26.20;76.00
36800;DHT22;22752;51.960;5.886;2023-06-26T14:10:28;26.00;74.20
36800;DHT22;22752;51.960;5.886;2023-06-26T14:12:54;25.70;75.80
36800;DHT22;22752;51.960;5.886;2023-06-26T14:15:20;25.40;76.10
36800;DHT22;22752;51.960;5.886;2023-06-26T14:17:45;25.10;76.40
36800;DHT22;22752;51.960;5.886;2023-06-26T14:20:13;25.00;77.00
36800;DHT22;22752;51.960;5.886;2023-06-26T14:22:40;25.00;76.70
36800;DHT22;22752;51.960;5.886;2023-06-26T14:25:07;24.90;76.40
36800;DHT22;22752;51.960;5.886;2023-06-26T14:27:32;24.90;76.40
36800;DHT22;22752;51.960;5.886;2023-06-26T14:29:58;25.10;76.80
36800;DHT22;22752;51.960;5.886;2023-06-26T14:32:23;25.30;76.60
36800;DHT22;22752;51.960;5.886;2023-06-26T14:34:49;25.40;77.40
36800;DHT22;22752;51.960;5.886;2023-06-26T14:37:15;25.40;76.30
36800;DHT22;22752;51.960;5.886;2023-06-26T14:39:41;25.50;76.80
36800;DHT22;22752;51.960;5.886;2023-06-26T14:42:07;25.70;77.50
36800;DHT22;22752;51.960;5.886;2023-06-26T14:44:33;25.80;77.10
36800;DHT22;22752;51.960;5.886;2023-06-26T14:46:58;25.90;76.10
36800;DHT22;22752;51.960;5.886;2023-06-26T14:49:24;26.00;76.10
36800;DHT22;22752;51.960;5.886;2023-06-26T14:51:50;25.90;74.70
36800;DHT22;22752;51.960;5.886;2023-06-26T14:54:15;25.80;74.30
36800;DHT22;22752;51.960;5.886;2023-06-26T14:56:41;25.70;75.40
36800;DHT22;22752;51.960;5.886;2023-06-26T14:59:09;25.70;75.90
36800;DHT22;22752;51.960;5.886;2023-06-26T15:01:35;25.60;75.70
36800;DHT22;22752;51.960;5.886;2023-06-26T15:04:01;25.60;75.20
36800;DHT22;22752;51.960;5.886;2023-06-26T15:06:27;25.40;75.90
36800;DHT22;22752;51.960;5.886;2023-06-26T15:08:52;25.30;76.90
36800;DHT22;22752;51.960;5.886;2023-06-26T15:11:18;25.40;77.20
36800;DHT22;22752;51.960;5.886;2023-06-26T15:13:44;25.50;75.80
36800;DHT22;22752;51.960;5.886;2023-06-26T15:16:10;25.40;76.40
36800;DHT22;22752;51.960;5.886;2023-06-26T15:18:35;25.30;75.60
36800;DHT22;22752;51.960;5.886;2023-06-26T15:21:01;25.10;75.60
36800;DHT22;22752;51.960;5.886;2023-06-26T15:23:28;25.10;76.90
36800;DHT22;22752;51.960;5.886;2023-06-26T15:25:54;25.00;76.70
36800;DHT22;22752;51.960;5.886;2023-06-26T15:28:20;25.00;77.10
36800;DHT22;22752;51.960;5.886;2023-06-26T15:30:46;25.00;78.50
36800;DHT22;22752;51.960;5.886;2023-06-26T15:33:12;25.00;77.50